Time;durP1;ratioP1;P1;durP2;ratioP2;P2;SDS_P1;SDS_P2;PMS_P1;PMS_P2;Temp;Humidity;BMP_temperature;BMP_pressure;BME280_temperature;BME280_humidity;BME280_pressure;Samples;Min_cycle;Max_cycle;Signal;HPM_P1;HPM_P2
2021/07/12 00:01:41;;;;;;;4.97;2.47;;;13.60;99.90;;;;;;5029620;28;20204;-53
2021/07/12 00:04:06;;;;;;;3.60;2.47;;;13.60;99.90;;;;;;5030462;28;20444;-55
2021/07/12 00:06:32;;;;;;;3.03;2.60;;;13.60;99.90;;;;;;5029977;28;20238;-57
2021/07/12 00:08:58;;;;;;;2.93;2.63;;;13.50;99.90;;;;;;5030174;28;20290;-55
2021/07/12 00:11:23;;;;;;;2.77;2.57;;;13.50;99.90;;;;;;5029096;28;20203;-56
2021/07/12 00:13:51;;;;;;;3.00;2.60;;;13.50;99.90;;;;;;5029188;28;20176;-58
2021/07/12 00:16:16;;;;;;;7.70;2.87;;;13.50;99.90;;;;;;5029350;28;20647;-56
2021/07/12 00:18:42;;;;;;;3.23;2.70;;;13.40;99.90;;;;;;5029865;28;20419;-56
2021/07/12 00:21:08;;;;;;;5.87;2.90;;;13.40;99.90;;;;;;5028084;28;20306;-55
2021/07/12 00:23:34;;;;;;;8.40;2.80;;;13.40;99.90;;;;;;5029632;28;20667;-57
2021/07/12 00:26:03;;;;;;;10.67;2.50;;;13.40;99.90;;;;;;5027416;28;20671;-56
2021/07/12 00:28:29;;;;;;;5.63;2.60;;;13.30;99.90;;;;;;5031333;28;20545;-57
2021/07/12 00:30:55;;;;;;;2.50;2.30;;;13.30;99.90;;;;;;5028297;28;20442;-60
2021/07/12 00:33:20;;;;;;;4.33;2.80;;;13.30;99.90;;;;;;5020740;28;20467;-52
2021/07/12 00:35:46;;;;;;;5.10;2.87;;;13.30;99.90;;;;;;5029035;28;20180;-57
2021/07/12 00:38:12;;;;;;;3.50;2.90;;;13.20;99.90;;;;;;5029336;28;20196;-55
2021/07/12 00:40:37;;;;;;;2.63;2.43;;;13.20;99.90;;;;;;5026827;28;20179;-58
2021/07/12 00:43:05;;;;;;;5.17;2.50;;;13.20;99.90;;;;;;5040039;22;20357;-56
2021/07/12 00:45:32;;;;;;;3.63;2.97;;;13.20;99.90;;;;;;5010279;28;20192;-55
2021/07/12 00:47:58;;;;;;;3.30;2.50;;;13.10;99.90;;;;;;5013689;28;20418;-55
2021/07/12 00:50:25;;;;;;;3.20;2.90;;;13.10;99.90;;;;;;5010171;28;20436;-55
2021/07/12 00:52:52;;;;;;;3.57;2.70;;;13.10;99.90;;;;;;4997005;28;20448;-55
2021/07/12 00:55:32;;;;;;;2.90;2.57;;;13.10;99.90;;;;;;5012593;28;20951;-57
2021/07/12 00:57:59;;;;;;;2.53;2.23;;;13.00;99.90;;;;;;5015563;28;20425;-56
2021/07/12 01:00:26;;;;;;;6.33;2.90;;;13.00;99.90;;;;;;5006456;28;20440;-56
2021/07/12 01:02:52;;;;;;;4.57;2.90;;;13.00;99.90;;;;;;5007020;28;20444;-55
2021/07/12 01:05:20;;;;;;;2.87;2.53;;;13.00;99.90;;;;;;4995534;28;20841;-56
2021/07/12 01:07:47;;;;;;;3.50;2.90;;;13.00;99.90;;;;;;4995513;28;20424;-56
2021/07/12 01:10:14;;;;;;;4.10;3.03;;;13.00;99.90;;;;;;5005310;28;20438;-55
2021/07/12 01:13:04;;;;;;;3.40;2.80;;;12.90;99.90;;;;;;4997923;28;20435;-56
2021/07/12 01:15:42;;;;;;;2.90;2.60;;;13.00;99.90;;;;;;4989185;28;20416;-56
2021/07/12 01:18:53;;;;;;;3.73;2.60;;;12.90;99.90;;;;;;4989820;28;20524;-56
2021/07/12 01:22:06;;;;;;;5.00;2.33;;;12.90;99.90;;;;;;4936313;29;20632;-57
2021/07/12 01:25:09;;;;;;;3.70;2.77;;;12.90;99.90;;;;;;5003133;28;20526;-56
2021/07/12 01:27:47;;;;;;;5.23;3.13;;;12.90;99.90;;;;;;4995650;28;20564;-56
2021/07/12 01:30:30;;;;;;;3.20;2.90;;;12.80;99.90;;;;;;5000359;28;20462;-55
2021/07/12 01:33:17;;;;;;;4.10;2.43;;;12.80;99.90;;;;;;5008020;28;20508;-55
2021/07/12 01:35:46;;;;;;;3.87;2.40;;;12.80;99.90;;;;;;5001541;28;20434;-56
2021/07/12 01:38:28;;;;;;;3.23;2.93;;;12.80;99.90;;;;;;4995022;28;20502;-56
2021/07/12 01:41:06;;;;;;;3.70;2.80;;;12.70;99.90;;;;;;4988449;28;20452;-57
2021/07/12 01:43:52;;;;;;;2.93;2.40;;;12.70;99.90;;;;;;4991163;28;20497;-55
2021/07/12 01:46:33;;;;;;;4.20;2.80;;;12.70;99.90;;;;;;5003697;28;20567;-55
2021/07/12 01:49:08;;;;;;;2.80;2.60;;;12.70;99.90;;;;;;4990037;28;20526;-57
2021/07/12 01:52:15;;;;;;;4.17;2.67;;;12.60;99.90;;;;;;4995050;28;20427;-53
2021/07/12 01:55:06;;;;;;;3.13;2.70;;;12.60;99.90;;;;;;4998438;28;20528;-56
2021/07/12 01:57:35;;;;;;;4.87;3.53;;;12.60;99.90;;;;;;4994668;28;20436;-56
2021/07/12 02:00:00;;;;;;;4.53;2.50;;;12.60;99.90;;;;;;4988702;28;20508;-56
2021/07/12 02:02:29;;;;;;;3.10;2.70;;;12.60;99.90;;;;;;4991058;28;20766;-56
2021/07/12 02:04:58;;;;;;;2.70;2.50;;;12.50;99.90;;;;;;4992647;28;20271;-55
2021/07/12 02:07:25;;;;;;;4.07;2.60;;;12.50;99.90;;;;;;5000770;28;20487;-55
2021/07/12 02:09:53;;;;;;;4.80;3.20;;;12.50;99.90;;;;;;5001674;28;20425;-55
2021/07/12 02:12:20;;;;;;;4.53;3.03;;;12.50;99.90;;;;;;5002678;28;20531;-57
2021/07/12 02:14:47;;;;;;;5.67;3.20;;;12.40;99.90;;;;;;4999002;28;20523;-55
2021/07/12 02:17:15;;;;;;;8.97;3.70;;;12.40;99.90;;;;;;4988161;28;20431;-55
2021/07/12 02:19:42;;;;;;;12.93;3.20;;;12.40;99.90;;;;;;4997229;28;20432;-56
2021/07/12 02:22:10;;;;;;;30.77;3.73;;;12.30;99.90;;;;;;4996843;28;20586;-56
2021/07/12 02:24:37;;;;;;;18.73;3.33;;;12.30;99.90;;;;;;4995849;28;20450;-55
2021/07/12 02:27:03;;;;;;;13.33;2.93;;;12.30;99.90;;;;;;5006152;28;20442;-55
2021/07/12 02:29:31;;;;;;;6.17;2.63;;;12.20;99.90;;;;;;5004090;28;20442;-56
2021/07/12 02:31:59;;;;;;;21.10;3.53;;;12.20;99.90;;;;;;5001256;28;20793;-55
2021/07/12 02:34:25;;;;;;;14.80;3.23;;;12.20;99.90;;;;;;4987854;28;20396;-56
2021/07/12 02:36:53;;;;;;;11.80;2.60;;;12.10;99.90;;;;;;4986689;28;20492;-57
2021/07/12 02:39:20;;;;;;;12.53;3.03;;;12.10;99.90;;;;;;4993203;28;20423;-56
2021/07/12 02:41:47;;;;;;;9.00;2.90;;;12.10;99.90;;;;;;5001185;28;20533;-55
2021/07/12 02:44:13;;;;;;;3.17;2.87;;;12.10;99.90;;;;;;5007664;28;20419;-56
2021/07/12 02:46:40;;;;;;;10.77;2.83;;;12.00;99.90;;;;;;4990501;28;20495;-56
2021/07/12 02:49:07;;;;;;;6.13;2.83;;;12.10;99.90;;;;;;4994464;28;20431;-55
2021/07/12 02:51:41;;;;;;;8.70;3.07;;;12.10;99.90;;;;;;5003874;28;20918;-56
2021/07/12 02:54:11;;;;;;;5.40;2.80;;;12.10;99.90;;;;;;5022655;28;20446;-55
2021/07/12 02:56:36;;;;;;;6.00;2.83;;;12.10;99.90;;;;;;5006753;28;20455;-56
2021/07/12 02:59:02;;;;;;;5.77;2.80;;;12.10;99.90;;;;;;4995026;28;20534;-55
2021/07/12 03:01:28;;;;;;;20.97;2.83;;;12.10;99.90;;;;;;5004127;28;20684;-55
2021/07/12 03:03:54;;;;;;;7.70;2.80;;;12.10;99.90;;;;;;4987917;28;20697;-56
2021/07/12 03:06:26;;;;;;;3.30;2.77;;;12.00;99.90;;;;;;4988108;28;20193;-55
2021/07/12 03:08:58;;;;;;;3.00;2.20;;;11.90;99.90;;;;;;4991693;28;20507;-55
2021/07/12 03:11:30;;;;;;;12.83;3.00;;;11.90;99.90;;;;;;5003217;28;20454;-56
2021/07/12 03:14:33;;;;;;;3.80;2.83;;;11.90;99.90;;;;;;4987871;28;20458;-56
2021/07/12 03:17:00;;;;;;;6.10;2.40;;;11.80;99.90;;;;;;4987800;28;20607;-55
2021/07/12 03:19:30;;;;;;;7.60;2.67;;;11.80;99.90;;;;;;4988589;28;20456;-55
2021/07/12 03:21:58;;;;;;;10.40;2.60;;;11.80;99.90;;;;;;4996003;28;20447;-54
2021/07/12 03:24:27;;;;;;;2.67;2.30;;;11.80;99.90;;;;;;4990783;28;20563;-56
2021/07/12 03:26:54;;;;;;;3.70;2.30;;;11.80;99.90;;;;;;5000247;28;20458;-56
2021/07/12 03:29:22;;;;;;;3.57;2.40;;;11.70;99.90;;;;;;5004722;28;20797;-56
2021/07/12 03:31:48;;;;;;;3.60;2.60;;;11.70;99.90;;;;;;5002382;28;20439;-55
2021/07/12 03:34:16;;;;;;;7.53;2.60;;;11.70;99.90;;;;;;5004016;28;20419;-56
2021/07/12 03:36:44;;;;;;;6.10;2.30;;;11.70;99.90;;;;;;4991493;28;20181;-55
2021/07/12 03:39:10;;;;;;;4.50;3.17;;;11.70;99.90;;;;;;5009144;28;21142;-55
2021/07/12 03:41:37;;;;;;;9.80;1.90;;;11.60;99.90;;;;;;5006513;28;20423;-54
2021/07/12 03:44:05;;;;;;;2.80;2.20;;;11.60;99.90;;;;;;4996013;28;20467;-56
2021/07/12 03:46:31;;;;;;;6.80;2.30;;;11.60;99.90;;;;;;4998429;28;20486;-56
2021/07/12 03:48:57;;;;;;;4.87;2.40;;;11.50;99.90;;;;;;5004218;28;20419;-55
2021/07/12 03:51:26;;;;;;;5.73;2.23;;;11.50;99.90;;;;;;5000794;28;20243;-55
2021/07/12 03:53:52;;;;;;;4.07;2.13;;;11.40;99.90;;;;;;4998067;28;20207;-55
2021/07/12 03:56:18;;;;;;;2.43;2.23;;;11.40;99.90;;;;;;5006970;28;20550;-56
2021/07/12 03:58:45;;;;;;;3.70;2.50;;;11.40;99.90;;;;;;4994006;28;20451;-56
2021/07/12 04:01:11;;;;;;;7.13;2.70;;;11.40;99.90;;;;;;4990025;28;20534;-55
2021/07/12 04:03:36;;;;;;;8.50;2.70;;;11.30;99.90;;;;;;4996111;28;20452;-55
2021/07/12 04:06:03;;;;;;;3.60;2.27;;;11.40;99.90;;;;;;5007486;28;20458;-56
2021/07/12 04:08:29;;;;;;;8.67;2.90;;;11.40;99.90;;;;;;5012966;28;20169;-56
2021/07/12 04:10:54;;;;;;;2.60;2.40;;;11.40;99.90;;;;;;5008517;28;20492;-56
2021/07/12 04:13:20;;;;;;;3.00;2.77;;;11.40;99.90;;;;;;5008023;28;20232;-55
2021/07/12 04:15:46;;;;;;;5.27;2.70;;;11.40;99.90;;;;;;4995572;28;20185;-57
2021/07/12 04:18:12;;;;;;;3.13;2.50;;;11.50;99.90;;;;;;4996009;28;20184;-55
2021/07/12 04:20:38;;;;;;;5.60;2.30;;;11.50;99.90;;;;;;5000591;28;20177;-55
2021/07/12 04:23:04;;;;;;;9.53;2.90;;;11.60;99.90;;;;;;5000029;28;20582;-55
2021/07/12 04:25:31;;;;;;;4.67;2.43;;;11.60;99.90;;;;;;5004900;28;20486;-54
2021/07/12 04:27:57;;;;;;;3.80;2.27;;;11.60;99.90;;;;;;4995851;28;20513;-55
2021/07/12 04:30:24;;;;;;;5.53;2.37;;;11.60;99.90;;;;;;5015421;28;20431;-56
2021/07/12 04:32:50;;;;;;;10.97;2.67;;;11.60;99.90;;;;;;4999859;28;20446;-56
2021/07/12 04:35:16;;;;;;;8.07;3.20;;;11.60;99.90;;;;;;4991985;28;20454;-54
2021/07/12 04:37:42;;;;;;;2.93;2.50;;;11.60;99.90;;;;;;4996562;28;20444;-55
2021/07/12 04:40:09;;;;;;;7.33;2.50;;;11.60;99.90;;;;;;4991839;28;20689;-56
2021/07/12 04:42:35;;;;;;;7.53;2.43;;;11.70;99.90;;;;;;4986917;28;20565;-57
2021/07/12 04:45:02;;;;;;;2.53;2.33;;;11.70;99.90;;;;;;4987519;28;20455;-57
2021/07/12 04:47:29;;;;;;;3.73;3.10;;;11.80;99.90;;;;;;4997205;28;20184;-56
2021/07/12 04:49:54;;;;;;;2.83;2.50;;;11.80;99.90;;;;;;4993631;28;20801;-55
2021/07/12 04:52:23;;;;;;;8.47;3.97;;;11.90;99.90;;;;;;4998891;28;20601;-55
2021/07/12 04:54:49;;;;;;;9.90;5.80;;;11.90;99.90;;;;;;4991753;28;20599;-56
2021/07/12 04:57:15;;;;;;;12.00;6.13;;;11.90;99.90;;;;;;5005462;28;20415;-55
2021/07/12 04:59:41;;;;;;;16.37;6.00;;;11.90;99.90;;;;;;5004932;28;20480;-54
2021/07/12 05:02:08;;;;;;;46.47;6.90;;;12.00;99.90;;;;;;5005906;28;20439;-54
2021/07/12 05:04:34;;;;;;;43.20;6.33;;;12.00;99.90;;;;;;5002738;28;20217;-56
2021/07/12 05:07:00;;;;;;;13.83;4.77;;;12.00;99.90;;;;;;4990048;28;20554;-55
2021/07/12 05:09:26;;;;;;;6.73;4.43;;;12.00;99.90;;;;;;4992301;28;20435;-55
2021/07/12 05:11:52;;;;;;;6.37;4.33;;;12.00;99.90;;;;;;5000062;28;20466;-55
2021/07/12 05:14:19;;;;;;;7.57;4.40;;;12.10;99.90;;;;;;5005198;28;20564;-54
2021/07/12 05:16:44;;;;;;;17.80;8.57;;;12.10;99.90;;;;;;5007906;28;20440;-55
2021/07/12 05:19:14;;;;;;;31.20;10.20;;;12.20;99.90;;;;;;4995888;28;20859;-54
2021/07/12 05:21:40;;;;;;;26.10;11.47;;;12.20;99.90;;;;;;4996501;28;20528;-55
2021/07/12 05:24:06;;;;;;;21.07;10.50;;;12.20;99.90;;;;;;4995926;28;20486;-55
2021/07/12 05:26:32;;;;;;;10.87;6.23;;;12.30;99.90;;;;;;4989515;28;20460;-55
2021/07/12 05:28:57;;;;;;;7.30;4.33;;;12.30;99.90;;;;;;4995501;28;20268;-56
2021/07/12 05:31:23;;;;;;;3.60;2.73;;;12.40;99.90;;;;;;5001937;28;20235;-54
2021/07/12 05:33:49;;;;;;;4.17;2.80;;;12.50;99.90;;;;;;4998896;28;20219;-55
2021/07/12 05:36:15;;;;;;;2.50;2.30;;;12.60;99.90;;;;;;5002566;28;20897;-55
2021/07/12 05:38:40;;;;;;;4.43;3.40;;;12.70;99.90;;;;;;5004886;28;20191;-55
2021/07/12 05:41:06;;;;;;;4.27;3.80;;;12.80;99.90;;;;;;5007819;28;20640;-55
2021/07/12 05:43:33;;;;;;;3.53;3.23;;;12.90;99.90;;;;;;5008384;28;20683;-55
2021/07/12 05:45:59;;;;;;;3.00;2.77;;;12.90;99.90;;;;;;4999834;28;20208;-55
2021/07/12 05:48:24;;;;;;;2.30;2.20;;;13.00;99.90;;;;;;4992640;28;20426;-54
2021/07/12 05:50:51;;;;;;;7.47;2.70;;;13.10;99.90;;;;;;5007958;28;20596;-55
2021/07/12 05:53:16;;;;;;;11.87;2.93;;;13.30;99.90;;;;;;5007190;28;20197;-54
2021/07/12 05:55:43;;;;;;;6.93;3.10;;;13.40;99.90;;;;;;4988677;28;20458;-56
2021/07/12 05:58:08;;;;;;;3.90;2.37;;;13.50;99.90;;;;;;5007672;28;20180;-54
2021/07/12 06:00:35;;;;;;;3.70;2.50;;;13.60;99.90;;;;;;5008459;28;20766;-55
2021/07/12 06:03:01;;;;;;;2.60;2.40;;;13.70;99.90;;;;;;4992833;28;20277;-55
2021/07/12 06:05:26;;;;;;;5.20;2.70;;;13.70;99.90;;;;;;4988200;28;20452;-55
2021/07/12 06:07:52;;;;;;;10.60;3.10;;;13.70;99.90;;;;;;4996924;28;20195;-55
2021/07/12 06:10:19;;;;;;;5.70;3.00;;;13.70;99.90;;;;;;5005649;28;20316;-56
2021/07/12 06:12:44;;;;;;;4.63;3.00;;;13.70;99.90;;;;;;5000649;28;20280;-56
2021/07/12 06:15:10;;;;;;;15.03;3.90;;;13.70;99.90;;;;;;4991479;28;20996;-55
2021/07/12 06:17:37;;;;;;;15.27;3.50;;;13.80;99.90;;;;;;4992599;28;20685;-55
2021/07/12 06:20:05;;;;;;;7.90;3.43;;;13.80;99.90;;;;;;5007834;28;20431;-55
2021/07/12 06:22:31;;;;;;;6.13;3.27;;;13.90;99.90;;;;;;4990963;28;20546;-54
2021/07/12 06:24:56;;;;;;;3.40;2.63;;;14.00;99.90;;;;;;4988083;28;20674;-54
2021/07/12 06:27:22;;;;;;;2.90;2.60;;;14.20;99.90;;;;;;4989058;28;20188;-55
2021/07/12 06:29:47;;;;;;;3.47;3.17;;;14.30;99.90;;;;;;4987476;28;20266;-54
2021/07/12 06:32:13;;;;;;;3.67;3.23;;;14.50;99.90;;;;;;4988143;28;20220;-55
2021/07/12 06:34:39;;;;;;;9.00;3.93;;;14.70;99.90;;;;;;4999974;28;20526;-56
2021/07/12 06:37:05;;;;;;;25.17;4.90;;;14.90;99.90;;;;;;5006871;28;20180;-56
2021/07/12 06:39:30;;;;;;;43.77;6.20;;;15.00;99.90;;;;;;5002216;28;20299;-55
2021/07/12 06:41:56;;;;;;;12.70;3.70;;;15.10;99.90;;;;;;5005679;28;20474;-55
2021/07/12 06:44:22;;;;;;;12.47;3.93;;;15.20;99.90;;;;;;5049269;22;20581;-55
2021/07/12 06:46:47;;;;;;;13.73;4.63;;;15.30;99.90;;;;;;5043104;28;20888;-56
2021/07/12 06:49:13;;;;;;;12.30;4.67;;;15.40;99.90;;;;;;5029670;28;20168;-55
2021/07/12 06:51:39;;;;;;;14.70;4.70;;;15.40;99.90;;;;;;5029265;28;20535;-55
2021/07/12 06:54:04;;;;;;;31.03;5.93;;;15.50;99.90;;;;;;5036923;28;20195;-53
2021/07/12 06:56:30;;;;;;;22.30;4.77;;;15.60;99.90;;;;;;5045772;28;20201;-56
2021/07/12 06:58:56;;;;;;;8.87;3.50;;;15.70;99.90;;;;;;5049510;28;20270;-56
2021/07/12 07:01:22;;;;;;;7.80;4.50;;;15.70;99.90;;;;;;5047731;28;21002;-55
2021/07/12 07:03:47;;;;;;;7.27;4.70;;;15.80;99.90;;;;;;5043127;28;20273;-55
2021/07/12 07:06:13;;;;;;;6.77;4.90;;;15.90;99.90;;;;;;5039755;28;20195;-56
2021/07/12 07:08:39;;;;;;;5.13;3.60;;;16.00;99.90;;;;;;5035095;28;20164;-54
2021/07/12 07:11:05;;;;;;;8.10;4.70;;;16.20;99.90;;;;;;5049568;28;20222;-56
2021/07/12 07:13:31;;;;;;;4.77;3.60;;;16.30;99.90;;;;;;5039232;28;20195;-55
2021/07/12 07:15:56;;;;;;;5.83;3.37;;;16.50;99.90;;;;;;5053087;28;20744;-55
2021/07/12 07:18:22;;;;;;;7.23;3.40;;;16.70;99.90;;;;;;5053743;28;20500;-56
2021/07/12 07:20:48;;;;;;;8.53;3.80;;;16.80;99.90;;;;;;5039151;28;20664;-55
2021/07/12 07:23:13;;;;;;;9.40;3.47;;;17.00;99.90;;;;;;5046902;28;20199;-56
2021/07/12 07:25:40;;;;;;;4.90;3.57;;;17.10;99.90;;;;;;5047215;28;20717;-56
2021/07/12 07:28:05;;;;;;;3.53;3.20;;;17.30;99.90;;;;;;5049505;28;20199;-56
2021/07/12 07:30:32;;;;;;;5.17;3.10;;;17.40;99.90;;;;;;5042860;28;21015;-56
2021/07/12 07:32:58;;;;;;;3.27;2.97;;;17.60;99.90;;;;;;5045813;28;20856;-55
2021/07/12 07:35:24;;;;;;;7.00;3.80;;;17.80;99.90;;;;;;5067596;28;20413;-55
2021/07/12 07:37:50;;;;;;;3.13;2.83;;;18.00;99.90;;;;;;5057744;28;20175;-56
2021/07/12 07:40:18;;;;;;;3.57;2.93;;;18.20;99.90;;;;;;5051854;28;20487;-55
2021/07/12 07:42:45;;;;;;;5.07;3.20;;;18.30;99.90;;;;;;5052309;28;20194;-56
2021/07/12 07:45:13;;;;;;;3.60;3.10;;;18.40;99.90;;;;;;5050974;28;20457;-56
2021/07/12 07:47:40;;;;;;;3.80;3.00;;;18.40;99.90;;;;;;5032443;28;20394;-56
2021/07/12 07:50:08;;;;;;;3.07;2.73;;;18.40;99.90;;;;;;5038529;28;20417;-56
2021/07/12 07:52:33;;;;;;;3.40;3.10;;;18.40;99.90;;;;;;5053743;28;20993;-57
2021/07/12 07:55:00;;;;;;;4.23;3.43;;;18.50;99.90;;;;;;5048990;28;20513;-57
2021/07/12 07:57:26;;;;;;;5.70;3.30;;;18.70;99.90;;;;;;5052047;28;20233;-56
2021/07/12 07:59:51;;;;;;;7.03;4.40;;;18.80;99.90;;;;;;5051280;28;20925;-55
2021/07/12 08:02:17;;;;;;;3.90;3.07;;;19.00;99.90;;;;;;5031707;28;20229;-54
2021/07/12 08:04:43;;;;;;;4.70;3.10;;;19.10;99.90;;;;;;5044730;28;20184;-55
2021/07/12 08:07:09;;;;;;;4.20;3.30;;;19.30;99.90;;;;;;5051369;28;20716;-55
2021/07/12 08:09:36;;;;;;;4.30;3.03;;;19.40;99.90;;;;;;5046021;28;20633;-57
2021/07/12 08:12:02;;;;;;;4.17;2.83;;;19.50;99.90;;;;;;5034995;28;20657;-55
2021/07/12 08:14:28;;;;;;;4.27;2.60;;;19.60;99.90;;;;;;5040330;28;20454;-55
2021/07/12 08:16:54;;;;;;;2.80;2.60;;;19.70;99.40;;;;;;5033102;28;20552;-56
2021/07/12 08:19:19;;;;;;;3.23;2.93;;;19.80;98.70;;;;;;5047190;28;20184;-56
2021/07/12 08:21:45;;;;;;;3.37;2.63;;;20.00;98.10;;;;;;5038677;28;20183;-55
2021/07/12 08:24:11;;;;;;;2.43;2.23;;;20.10;95.80;;;;;;5043576;28;20202;-55
2021/07/12 08:26:37;;;;;;;4.30;2.50;;;20.20;93.00;;;;;;5053269;28;20793;-56
2021/07/12 08:29:03;;;;;;;3.63;2.63;;;20.30;92.90;;;;;;5051306;28;20175;-56
2021/07/12 08:31:29;;;;;;;3.00;2.70;;;20.40;93.70;;;;;;5046076;28;20267;-56
2021/07/12 08:33:55;;;;;;;6.20;2.97;;;20.60;92.40;;;;;;5042883;28;20528;-57
2021/07/12 08:36:23;;;;;;;2.77;2.20;;;20.70;91.70;;;;;;5050931;28;20183;-56
2021/07/12 08:38:49;;;;;;;3.30;2.57;;;20.80;90.90;;;;;;5050170;28;20433;-55
2021/07/12 08:41:14;;;;;;;3.63;2.60;;;20.90;91.10;;;;;;5039168;28;20453;-56
2021/07/12 08:43:41;;;;;;;3.53;2.47;;;21.10;90.30;;;;;;5051169;28;20219;-56
2021/07/12 08:46:07;;;;;;;6.03;2.40;;;21.20;88.20;;;;;;5050921;28;20195;-57
2021/07/12 08:48:32;;;;;;;3.70;3.00;;;21.30;88.00;;;;;;5050075;28;20765;-56
2021/07/12 08:50:58;;;;;;;4.30;2.60;;;21.50;88.10;;;;;;5033140;28;20442;-56
2021/07/12 08:53:24;;;;;;;2.50;2.30;;;21.50;82.10;;;;;;5041016;28;20206;-56
2021/07/12 08:55:50;;;;;;;4.23;2.20;;;21.40;80.70;;;;;;5050626;28;20178;-56
2021/07/12 08:58:27;;;;;;;3.47;2.67;;;21.50;82.50;;;;;;5050544;28;20175;-57
2021/07/12 09:01:05;;;;;;;4.93;2.37;;;21.60;80.50;;;;;;5046736;28;20437;-57
2021/07/12 09:03:32;;;;;;;2.30;2.10;;;21.60;80.20;;;;;;5049853;28;20452;-57
2021/07/12 09:06:17;;;;;;;2.70;2.03;;;21.70;80.60;;;;;;5046565;28;20563;-56
2021/07/12 09:08:46;;;;;;;2.73;2.43;;;21.70;75.10;;;;;;5038510;28;20825;-56
2021/07/12 09:11:19;;;;;;;5.10;2.20;;;21.70;75.80;;;;;;5048941;28;20975;-56
2021/07/12 09:13:57;;;;;;;2.57;2.37;;;21.80;78.80;;;;;;5050346;28;20608;-57
2021/07/12 09:16:37;;;;;;;5.80;2.30;;;22.00;79.00;;;;;;5048250;28;20516;-56
2021/07/12 09:19:10;;;;;;;5.20;2.33;;;22.10;76.60;;;;;;5049039;28;20425;-56
2021/07/12 09:21:43;;;;;;;2.67;2.27;;;22.30;73.90;;;;;;5043279;28;20433;-56
2021/07/12 09:24:23;;;;;;;2.80;2.60;;;22.40;72.80;;;;;;5041881;28;20956;-57
2021/07/12 09:26:58;;;;;;;3.93;2.50;;;22.60;73.50;;;;;;5047108;28;20523;-56
2021/07/12 09:29:33;;;;;;;2.57;2.17;;;22.70;72.20;;;;;;5040336;28;20494;-55
2021/07/12 09:31:59;;;;;;;5.27;2.33;;;22.70;71.10;;;;;;5036807;28;21067;-56
2021/07/12 09:34:25;;;;;;;3.37;2.40;;;22.80;72.30;;;;;;5047075;28;20533;-57
2021/07/12 09:36:53;;;;;;;3.50;2.60;;;22.90;73.00;;;;;;5046343;28;20437;-55
2021/07/12 09:39:28;;;;;;;9.63;2.87;;;23.00;72.90;;;;;;5042544;28;20437;-58
2021/07/12 09:41:57;;;;;;;2.83;2.60;;;23.00;70.80;;;;;;5048837;28;20452;-56
2021/07/12 09:44:25;;;;;;;3.10;2.80;;;23.10;70.10;;;;;;5049470;28;20457;-58
2021/07/12 09:46:52;;;;;;;3.20;2.27;;;23.20;72.90;;;;;;5049463;28;21013;-56
2021/07/12 09:49:23;;;;;;;3.70;2.50;;;23.30;67.70;;;;;;5044900;28;20438;-57
2021/07/12 09:51:58;;;;;;;2.47;2.27;;;23.40;65.00;;;;;;5050366;28;20552;-57
2021/07/12 09:54:35;;;;;;;3.77;2.33;;;23.50;65.20;;;;;;5041424;28;20526;-56
2021/07/12 09:57:05;;;;;;;2.50;2.10;;;23.60;67.10;;;;;;5021745;28;20526;-56
2021/07/12 09:59:32;;;;;;;2.73;2.30;;;23.80;68.60;;;;;;5045298;28;20845;-56
2021/07/12 10:01:58;;;;;;;2.70;2.50;;;23.90;66.40;;;;;;5037922;28;20441;-57
2021/07/12 10:04:25;;;;;;;3.00;2.30;;;24.00;66.30;;;;;;5026189;28;21022;-57
2021/07/12 10:06:52;;;;;;;3.27;2.20;;;24.10;67.10;;;;;;5023864;28;20589;-57
2021/07/12 10:09:22;;;;;;;2.10;1.90;;;24.20;66.00;;;;;;5026209;28;20684;-57
2021/07/12 10:11:53;;;;;;;2.50;2.30;;;24.30;65.80;;;;;;5026084;28;20403;-58
2021/07/12 10:14:23;;;;;;;2.37;2.17;;;24.40;65.90;;;;;;5024665;28;20939;-58
2021/07/12 10:16:51;;;;;;;4.57;2.43;;;24.50;63.10;;;;;;5024757;28;20493;-57
2021/07/12 10:19:20;;;;;;;2.37;2.17;;;24.50;60.60;;;;;;5026612;28;20430;-57
2021/07/12 10:21:50;;;;;;;2.90;2.60;;;24.60;60.30;;;;;;5026220;28;20462;-57
2021/07/12 10:24:20;;;;;;;6.17;2.80;;;24.70;61.60;;;;;;5013170;28;20476;-58
2021/07/12 10:26:58;;;;;;;7.70;2.83;;;24.80;60.20;;;;;;5027916;28;20765;-56
2021/07/12 10:29:39;;;;;;;2.60;2.40;;;24.90;62.00;;;;;;5031403;28;20844;-56
2021/07/12 10:32:09;;;;;;;2.63;2.43;;;25.00;62.80;;;;;;5037879;28;20434;-57
2021/07/12 10:34:47;;;;;;;2.80;2.50;;;25.10;61.10;;;;;;5028030;28;20493;-56
2021/07/12 10:37:27;;;;;;;3.43;2.10;;;25.20;61.00;;;;;;5006138;28;20406;-57
2021/07/12 10:40:07;;;;;;;2.40;2.20;;;25.30;59.30;;;;;;5024396;28;20851;-56
2021/07/12 10:42:42;;;;;;;2.77;2.57;;;25.40;56.80;;;;;;5023251;28;20395;-56
2021/07/12 10:45:33;;;;;;;2.60;2.40;;;25.30;56.10;;;;;;5028147;28;20406;-57
2021/07/12 10:48:04;;;;;;;2.60;2.40;;;25.40;56.80;;;;;;5023203;28;20775;-58
2021/07/12 10:50:38;;;;;;;3.80;2.40;;;25.50;57.00;;;;;;5032757;28;20564;-57
2021/07/12 10:53:15;;;;;;;2.70;2.50;;;25.50;57.40;;;;;;5021801;28;20445;-57
2021/07/12 10:56:07;;;;;;;2.83;2.47;;;25.60;59.40;;;;;;5027298;28;20796;-56
2021/07/12 10:58:34;;;;;;;3.40;2.43;;;25.60;60.00;;;;;;5027187;28;20425;-56
2021/07/12 11:01:04;;;;;;;4.13;2.63;;;25.60;60.20;;;;;;5024686;28;20620;-57
2021/07/12 11:03:49;;;;;;;3.80;2.57;;;25.70;59.80;;;;;;5010645;28;20447;-58
2021/07/12 11:06:20;;;;;;;3.37;2.50;;;25.90;60.10;;;;;;5016811;28;20477;-57
2021/07/12 11:08:56;;;;;;;3.03;2.50;;;26.00;58.90;;;;;;4997633;28;20453;-57
2021/07/12 11:11:22;;;;;;;3.03;2.73;;;26.00;58.30;;;;;;4999696;28;20431;-60
2021/07/12 11:14:05;;;;;;;3.00;2.33;;;26.10;58.00;;;;;;5004458;28;20457;-60
2021/07/12 11:16:47;;;;;;;3.43;2.50;;;26.20;58.40;;;;;;5004637;28;20638;-58
2021/07/12 11:19:31;;;;;;;3.43;2.50;;;26.20;59.10;;;;;;5005296;28;20431;-59
2021/07/12 11:22:15;;;;;;;4.67;2.63;;;26.30;59.40;;;;;;5004392;28;20523;-59
2021/07/12 11:25:13;;;;;;;3.33;2.80;;;26.40;60.30;;;;;;5001076;28;20972;-60
2021/07/12 11:27:40;;;;;;;3.07;2.57;;;26.60;60.90;;;;;;4981334;28;20431;-61
2021/07/12 11:30:26;;;;;;;2.67;2.47;;;26.70;59.50;;;;;;5005886;28;20439;-60
2021/07/12 11:32:52;;;;;;;3.00;2.70;;;26.90;58.60;;;;;;5005454;28;20490;-60
2021/07/12 11:35:18;;;;;;;3.10;2.43;;;26.90;57.20;;;;;;5003679;28;20438;-59
2021/07/12 11:37:46;;;;;;;3.40;2.47;;;27.00;56.70;;;;;;5000378;28;21257;-60
2021/07/12 11:40:12;;;;;;;2.63;2.40;;;27.20;57.40;;;;;;5005417;28;20294;-61
2021/07/12 11:42:40;;;;;;;2.47;2.27;;;27.30;56.50;;;;;;5005176;28;20431;-60
2021/07/12 11:45:15;;;;;;;2.80;2.60;;;27.40;56.40;;;;;;4997119;28;20420;-61
2021/07/12 11:47:47;;;;;;;3.10;2.40;;;27.60;55.80;;;;;;4998334;28;20505;-61
2021/07/12 11:50:14;;;;;;;3.03;2.60;;;27.40;51.50;;;;;;5000064;28;20818;-59
2021/07/12 11:52:42;;;;;;;2.83;2.53;;;27.30;53.30;;;;;;5000045;28;20459;-59
2021/07/12 11:55:19;;;;;;;3.27;2.60;;;27.20;54.80;;;;;;5001278;28;20419;-60
2021/07/12 11:57:47;;;;;;;4.43;2.60;;;27.20;55.10;;;;;;5002822;28;20438;-61
2021/07/12 12:00:25;;;;;;;2.70;2.50;;;27.30;55.60;;;;;;5002677;28;20450;-60
2021/07/12 12:03:04;;;;;;;2.73;2.50;;;27.40;54.80;;;;;;5001717;28;20828;-60
2021/07/12 12:05:32;;;;;;;4.13;2.67;;;27.60;54.90;;;;;;5002715;28;20434;-60
2021/07/12 12:08:01;;;;;;;3.80;2.77;;;27.80;56.00;;;;;;5004003;28;20674;-60
2021/07/12 12:10:28;;;;;;;2.97;2.20;;;27.80;55.40;;;;;;5004004;28;20435;-60
2021/07/12 12:12:59;;;;;;;2.60;2.40;;;27.80;55.10;;;;;;4997198;28;20495;-60
2021/07/12 12:15:28;;;;;;;2.53;2.33;;;27.90;55.00;;;;;;4997108;28;20436;-60
2021/07/12 12:18:00;;;;;;;3.83;2.90;;;28.10;54.60;;;;;;4996586;28;20519;-60
2021/07/12 12:20:32;;;;;;;3.53;2.33;;;28.30;53.60;;;;;;4994943;28;20280;-58
2021/07/12 12:23:04;;;;;;;4.67;2.43;;;28.40;54.50;;;;;;4998106;28;20677;-59
2021/07/12 12:26:01;;;;;;;2.90;2.70;;;28.50;55.20;;;;;;5008458;28;20174;-60
2021/07/12 12:28:50;;;;;;;2.93;2.50;;;28.80;54.80;;;;;;5002060;28;20184;-60
2021/07/12 12:31:17;;;;;;;2.70;2.50;;;29.00;50.70;;;;;;5007394;28;20176;-60
2021/07/12 12:34:00;;;;;;;2.80;2.33;;;29.00;48.20;;;;;;4997970;28;20250;-62
2021/07/12 12:36:39;;;;;;;2.63;2.43;;;29.10;48.70;;;;;;4998823;28;20179;-61
2021/07/12 12:39:21;;;;;;;2.33;1.80;;;29.10;48.60;;;;;;4995914;28;20214;-60
2021/07/12 12:41:52;;;;;;;2.40;1.93;;;29.10;46.80;;;;;;4994829;28;20200;-61
2021/07/12 12:44:21;;;;;;;3.47;2.17;;;29.20;47.40;;;;;;4993016;28;20200;-63
2021/07/12 12:46:58;;;;;;;2.50;2.30;;;29.20;45.50;;;;;;4994126;28;20176;-62
2021/07/12 12:49:26;;;;;;;2.83;2.30;;;29.40;46.30;;;;;;4997108;28;20682;-61
2021/07/12 12:51:53;;;;;;;2.10;2.00;;;29.40;46.10;;;;;;4998944;28;20212;-62
2021/07/12 12:54:20;;;;;;;2.43;2.23;;;29.40;46.80;;;;;;5002815;28;20593;-61
2021/07/12 12:56:54;;;;;;;3.00;2.70;;;29.30;48.50;;;;;;4994270;28;20193;-61
2021/07/12 12:59:30;;;;;;;2.77;2.57;;;29.10;48.30;;;;;;4996093;28;20256;-61